Morristown Municipal Airport

Airport
ICAO code: 
KMMU
Summary
ICAO Region: 
NAM
Territory: 
Location: 
Morristown, New Jersey,
Coordinates: 
Aerial View: 
40° 47' 42.899" N, 74° 25' 31.131" W
Metar
Observation
KMMU 021450Z 26005KT 10SM BKN150 09/07 A2981
Station
Morristown Municipal
Date/Time
2021-12-02 14:50:00
Wind direction
260°
Wind speed
05 kts
Lowest cloud amount
broken clouds
Temperature
9°C
Dew point
7°C
Humidity
87%
Weather condition
n/a

Description

Morristown Municipal Airport is a public airport located 5 km east of the central business district of Morristown, in Morris County, New Jersey.

Climatology

Humid continental climate (Köppen climate classification Dfa) - characterized by hot, humid summers and cool winters. Significant amounts of precipitation occur in all seasons in most areas. Winter snowfall is associated with large storms that the westerlies steer from west to east. Most summer rainfall occurs during thunderstorms and occasional tropical storms (hurricanes).

Runways

Designator Length Width Surface Rops
13/31 1219 46 ASP Yes/Yes
5/23 1828 46 ASP Yes/Yes
Airport map: 
Aerial View: 

SKYbrary Partners:

Safety knowledge contributed by: